• Join FlightAware (Why Join?)
  • Login
  • US Flag 
Trick or treat! (Boo!!) 
04:05AM EDT


 

Airport Tracker/Info


-or-


 

Live Flight TrackerFlight Track Log ✈ SKP76 ✈ 06-Dec-2013 ✈ YBCS / CNS - YNPE / ABM

Flight Track Log - Related Links

Times and Time Zones

All times are in EST time to prevent confusion due to time zone crossing. See the SKP76 flight status page for this flight to view local times or setup timezone preferences in your user account.

Time Position Orientation Groundspeed Altitude Reporting Facility
EST Latitude Longitude Course Direction KTS MPH feet Rate Location/Type
10:37PM -16.8600 145.7417 335° Northwest 121 139 700  Level Aus ATC (RADAR)
10:37PM -16.8357 145.7301 335° Northwest 145 167 1,400 1,020 Climbing Aus ATC (RADAR)
10:38PM -16.8053 145.7159 336° Northwest 155 178 2,200 1,200 Climbing Aus ATC (RADAR)
10:38PM -16.7852 145.7054 334° Northwest 160 184 2,900 1,320 Climbing Aus ATC (RADAR)
10:39PM -16.7757 145.7001 332° Northwest 158 182 3,200 840 Climbing Aus ATC (RADAR)
10:40PM -16.7310 145.6786 335° Northwest 180 207 4,000 840 Climbing Aus ATC (RADAR)
10:41PM -16.6914 145.6596 335° Northwest 188 216 4,800 900 Climbing Aus ATC (RADAR)
10:41PM -16.6606 145.6429 333° Northwest 188 216 5,400 960 Climbing Aus ATC (RADAR)
10:42PM -16.6308 145.6243 329° Northwest 187 215 6,100 840 Climbing Aus ATC (RADAR)
10:42PM -16.6193 145.6170 329° Northwest 190 219 6,200 840 Climbing Aus ATC (RADAR)
10:43PM -16.5648 145.5857 331° Northwest 192 221 7,300 840 Climbing Aus ATC (RADAR)
10:43PM -16.5609 145.5833 329° Northwest 193 222 7,300 780 Level Aus ATC (RADAR)
10:45PM -16.4726 145.5328 331° Northwest 199 229 8,900 780 Climbing Aus ATC (RADAR)
10:46PM -16.4526 145.5216 332° Northwest 197 227 9,200 600 Climbing Aus ATC (RADAR)
10:46PM -16.4195 145.5034 332° Northwest 202 232 9,600 600 Climbing Aus ATC (RADAR)
10:47PM -16.3818 145.4821 332° Northwest 205 236 10,100 600 Climbing Aus ATC (RADAR)
10:48PM -16.3481 145.4630 331° Northwest 208 239 10,500 540 Climbing Aus ATC (RADAR)
10:48PM -16.3104 145.4409 331° Northwest 208 239 10,900 480 Climbing Aus ATC (RADAR)
10:49PM -16.2890 145.4286 331° Northwest 210 242 11,100 480 Climbing Aus ATC (RADAR)
10:50PM -16.2282 145.3941 331° Northwest 215 247 11,700 480 Climbing Aus ATC (RADAR)
10:51PM -16.2017 145.3789 331° Northwest 217 250 11,900 480 Climbing Aus ATC (RADAR)
10:52PM -16.1300 145.3385 332° Northwest 221 254 12,600 600 Climbing Aus ATC (RADAR)
10:52PM -16.0998 145.3211 331° Northwest 213 245 13,100 660 Climbing Aus ATC (RADAR)
10:53PM -16.0622 145.2995 331° Northwest 205 236 13,500 300 Climbing Aus ATC (RADAR)
10:54PM -16.0413 145.2884 333° Northwest 203 234 13,500 300 Level Aus ATC (RADAR)
10:56PM -15.9429 145.2317 331° Northwest 210 242 14,200 360 Climbing Aus ATC (RADAR)
10:56PM -15.9209 145.2195 332° Northwest 213 245 14,400 420 Climbing Aus ATC (RADAR)
10:56PM -15.9079 145.2120 331° Northwest 213 245 14,500 420 Climbing Aus ATC (RADAR)
10:57PM -15.8601 145.1854 332° Northwest 211 243 14,900 360 Climbing Aus ATC (RADAR)
10:58PM -15.8299 145.1684 332° Northwest 211 243 15,100 480 Climbing Aus ATC (RADAR)
10:59PM -15.7885 145.1449 331° Northwest 203 234 15,600 540 Climbing Aus ATC (RADAR)
10:59PM -15.7682 145.1335 331° Northwest 199 229 15,800 360 Climbing Aus ATC (RADAR)
11:00PM -15.7397 145.1170 331° Northwest 200 230 16,000 360 Climbing Aus ATC (RADAR)
11:01PM -15.6826 145.0849 332° Northwest 200 230 16,500 360 Climbing Aus ATC (RADAR)
11:01PM -15.6621 145.0737 332° Northwest 200 230 16,600 240 Climbing Aus ATC (RADAR)
11:02PM -15.6329 145.0585 333° Northwest 202 232 16,800 360 Climbing Aus ATC (RADAR)
11:02PM -15.6124 145.0465 330° Northwest 202 232 17,000 300 Climbing Aus ATC (RADAR)
11:03PM -15.5751 145.0255 332° Northwest 203 234 17,200 300 Climbing Aus ATC (RADAR)
11:04PM -15.5255 144.9968 331° Northwest 203 234 17,600 300 Climbing Aus ATC (RADAR)
11:04PM -15.5046 144.9846 331° Northwest 205 236 17,700 180 Climbing Aus ATC (RADAR)
11:05PM -15.4537 144.9564 332° Northwest 209 241 17,900 120 Climbing Aus ATC (RADAR)
11:06PM -15.4318 144.9442 332° Northwest 213 245 17,900  Level Aus ATC (RADAR)
11:06PM -15.4045 144.9295 333° Northwest 220 253 17,900  Level Aus ATC (RADAR)
11:07PM -15.3724 144.9111 331° Northwest 227 261 17,900  Level Aus ATC (RADAR)
11:07PM -15.3492 144.8978 331° Northwest 229 264 17,900  Level Aus ATC (RADAR)
11:08PM -15.3303 144.8877 333° Northwest 229 264 17,900  Level Aus ATC (RADAR)
11:08PM -15.2919 144.8663 332° Northwest 234 269 17,900  Level Aus ATC (RADAR)
11:10PM -15.2143 144.8222 331° Northwest 238 274 17,900  Level Aus ATC (RADAR)
11:11PM -15.1428 144.7817 331° Northwest 234 269 17,900  Level Aus ATC (RADAR)
11:11PM -15.1143 144.7655 331° Northwest 234 269 17,900  Level Aus ATC (RADAR)
11:12PM -15.0807 144.7471 332° Northwest 232 267 17,900  Level Aus ATC (RADAR)
11:13PM -15.0430 144.7260 332° Northwest 231 266 17,900  Level Aus ATC (RADAR)
11:13PM -15.0191 144.7132 333° Northwest 231 266 17,900  Level Aus ATC (RADAR)
11:14PM -14.9627 144.6817 332° Northwest 229 264 17,900  Level Aus ATC (RADAR)
11:15PM -14.9248 144.6608 332° Northwest 231 266 17,900  Level Aus ATC (RADAR)
11:16PM -14.8352 144.6106 332° Northwest 230 265 17,900  Level Aus ATC (RADAR)
11:17PM -14.8163 144.5998 331° Northwest 231 266 17,900  Level Aus ATC (RADAR)
11:17PM -14.7833 144.5819 332° Northwest 230 265 17,900  Level Aus ATC (RADAR)
11:17PM -14.7693 144.5742 332° Northwest 227 261 17,900  Level Aus ATC (RADAR)
11:18PM -14.7126 144.5417 331° Northwest 233 268 17,900  Level Aus ATC (RADAR)
11:19PM -14.6658 144.5151 331° Northwest 231 266 17,900  Level Aus ATC (RADAR)
11:19PM -14.6470 144.5046 332° Northwest 231 266 17,900  Level Aus ATC (RADAR)
11:20PM -14.6091 144.4843 333° Northwest 230 265 17,900  Level Aus ATC (RADAR)
11:21PM -14.5386 144.4447 331° Northwest 231 266 17,900  Level Aus ATC (RADAR)
11:22PM -14.5148 144.4320 333° Northwest 231 266 17,900  Level Aus ATC (RADAR)
11:22PM -14.4772 144.4107 331° Northwest 231 266 17,900  Level Aus ATC (RADAR)
11:23PM -14.4347 144.3874 332° Northwest 230 265 17,900  Level Aus ATC (RADAR)
11:24PM -14.4101 144.3772 338° Northwest 228 262 17,900  Level Aus ATC (RADAR)
11:25PM -14.3516 144.3478 334° Northwest 231 266 17,900  Level Aus ATC (RADAR)
11:25PM -14.3297 144.3314 324° Northwest 231 266 17,900  Level Aus ATC (RADAR)
11:26PM -14.2478 144.2895 334° Northwest 234 269 17,900  Level Aus ATC (RADAR)
11:27PM -14.1962 144.2587 330° Northwest 236 272 17,900  Level Aus ATC (RADAR)
11:28PM -14.1623 144.2412 333° Northwest 238 274 17,900  Level Aus ATC (RADAR)
11:29PM -14.1238 144.2207 333° Northwest 233 268 17,900  Level Aus ATC (RADAR)
11:29PM -14.1190 144.2182 334° Northwest 233 268 17,900  Level Aus ATC (RADAR)
11:33PM -13.8607 144.0729 331° Northwest 234 269 17,900  Level Aus ATC (RADAR)
11:34PM -13.8338 144.0531 324° Northwest 236 272 17,900  Level Aus ATC (RADAR)
11:36PM -13.6944 143.9761 332° Northwest 18,000  Climbing Aus ATC (Calculated)
11:37PM -13.6334 143.9425 332° Northwest 18,000  Level Aus ATC (Calculated)
11:38PM -13.6174 143.9337 332° Northwest  Level FlightAware Approximate
11:39PM -13.5423 143.8923 332° Northwest  Level FlightAware Approximate
11:40PM -13.4860 143.8613 332° Northwest  Level FlightAware Approximate
11:41PM -13.4297 143.8303 332° Northwest  Level FlightAware Approximate
11:42PM -13.3733 143.7993 332° Northwest  Level FlightAware Approximate
11:43PM -13.3170 143.7684 332° Northwest  Level FlightAware Approximate
11:44PM -13.2606 143.7374 332° Northwest  Level FlightAware Approximate
11:45PM -13.2043 143.7065 332° Northwest  Level FlightAware Approximate
11:46PM -13.1480 143.6756 332° Northwest  Level FlightAware Approximate
11:47PM -13.0916 143.6447 332° Northwest  Level FlightAware Approximate
11:48PM -13.0352 143.6138 332° Northwest  Level FlightAware Approximate
11:49PM -12.9789 143.5829 332° Northwest  Level FlightAware Approximate
11:50PM -12.9225 143.5520 332° Northwest  Level FlightAware Approximate
11:51PM -12.8661 143.5212 332° Northwest  Level FlightAware Approximate
11:51PM -12.8324 143.5027 332° Northwest 18,000  Level Aus ATC (Calculated)
11:52PM -12.8098 143.4903 332° Northwest  Level FlightAware Approximate
11:53PM -12.7403 143.4524 332° Northwest  Level FlightAware Approximate
11:53PM -12.7149 143.4371 135° Southeast  Level Aus ATC (Calculated)
11:54PM -12.7603 143.4832 135° Southeast  Level FlightAware Approximate
11:55PM -12.7149 143.4371 315° West  Level FlightAware Approximate
11:56PM -12.6724 143.4147 331° Northwest  Level FlightAware Approximate
11:57PM -12.6163 143.3833 331° Northwest  Level FlightAware Approximate
11:58PM -12.5602 143.3520 331° Northwest  Level FlightAware Approximate
11:59PM -12.5041 143.3206 331° Northwest  Level FlightAware Approximate
12:00AM -12.4480 143.2894 331° Northwest  Level FlightAware Approximate
12:01AM -12.3919 143.2581 331° Northwest  Level FlightAware Approximate
12:02AM -12.3358 143.2268 331° Northwest  Level FlightAware Approximate
12:03AM -12.2796 143.1955 331° Northwest  Level FlightAware Approximate
12:04AM -12.2235 143.1643 331° Northwest  Level FlightAware Approximate
12:05AM -12.1674 143.1330 331° Northwest  Level FlightAware Approximate
12:06AM -12.1113 143.1018 331° Northwest  Level FlightAware Approximate
12:07AM -12.0552 143.0706 331° Northwest  Level FlightAware Approximate
12:08AM -11.9990 143.0394 331° Northwest  Level FlightAware Approximate
12:09AM -11.9429 143.0082 331° Northwest  Level FlightAware Approximate
12:10AM -11.8868 142.9770 331° Northwest  Level FlightAware Approximate
12:11AM -11.8306 142.9459 331° Northwest  Level FlightAware Approximate
12:12AM -11.7745 142.9147 331° Northwest  Level FlightAware Approximate
12:13AM -11.7183 142.8836 332° Northwest  Level FlightAware Approximate
12:14AM -11.6622 142.8525 332° Northwest  Level FlightAware Approximate
12:15AM -11.6060 142.8214 332° Northwest  Level FlightAware Approximate
12:16AM -11.5498 142.7903 332° Northwest  Level FlightAware Approximate
12:17AM -11.4937 142.7592 332° Northwest  Level FlightAware Approximate
12:18AM -11.4375 142.7281 332° Northwest  Level FlightAware Approximate
12:19AM -11.3813 142.6971 332° Northwest  Level FlightAware Approximate
12:19AM -11.0612 142.5202 152° Southeast  Level Aus ATC (Calculated)
12:20AM -11.3252 142.6660 332° Northwest  Level FlightAware Approximate
12:21AM -10.9712 142.4707 332° Northwest  Level FlightAware Approximate
12:22AM -10.9444 142.4535 332° Northwest  Level Estimated
12:23AM -10.9444 142.4535 138° Southeast  Level Estimated
12:24AM -10.9444 142.4535 138° Southeast  Level Estimated
12:25AM -10.9444 142.4535 138° Southeast  Level Estimated
12:26AM -10.9444 142.4535 138° Southeast  Level Estimated
12:27AM -10.9444 142.4535 331° Northwest  Level Estimated
12:28AM -10.9444 142.4535 331° Northwest  Level Estimated
12:29AM -10.9444 142.4535 331° Northwest  Level Estimated
12:30AM -10.9444 142.4535 331° Northwest  Level Estimated
12:31AM -10.9444 142.4535 331° Northwest  Level Estimated
12:32AM -10.9444 142.4535 331° Northwest  Level Estimated
12:33AM -10.9444 142.4535 331° Northwest  Level Estimated
12:34AM -10.9444 142.4535 331° Northwest  Level Estimated
12:35AM -10.9444 142.4535 331° Northwest  Level Estimated
12:36AM -10.9444 142.4535 331° Northwest  Level Estimated
12:37AM -10.9444 142.4535 331° Northwest  Level Estimated